Time;durP1;ratioP1;P1;durP2;ratioP2;P2;SDS_P1;SDS_P2;PMS_P1;PMS_P2;Temp;Humidity;BMP_temperature;BMP_pressure;BME280_temperature;BME280_humidity;BME280_pressure;Samples;Min_cycle;Max_cycle;Signal;HPM_P1;HPM_P2
2022/09/05 00:00:54;;;;;;;0.65;0.60;;;18.70;63.80;;;;;;6274922;22;20019;-74
2022/09/05 00:03:30;;;;;;;0.50;0.50;;;18.60;63.90;;;;;;6276510;22;20073;-75
2022/09/05 00:06:07;;;;;;;0.70;0.70;;;18.50;64.00;;;;;;6277350;22;20028;-74
2022/09/05 00:09:00;;;;;;;0.57;0.57;;;18.60;64.10;;;;;;6278060;22;20023;-74
2022/09/05 00:11:48;;;;;;;1.13;0.80;;;18.70;64.40;;;;;;6255458;22;20140;-75
2022/09/05 00:14:46;;;;;;;0.70;0.70;;;18.50;64.40;;;;;;6278344;22;20004;-74
2022/09/05 00:17:47;;;;;;;0.73;0.65;;;18.50;64.50;;;;;;6277543;22;20011;-74
2022/09/05 00:20:47;;;;;;;0.77;0.60;;;18.50;64.60;;;;;;6277339;22;20014;-74
2022/09/05 00:23:35;;;;;;;0.77;0.70;;;18.40;64.60;;;;;;6251137;22;20015;-74
2022/09/05 00:26:38;;;;;;;1.80;0.82;;;18.40;64.70;;;;;;6284225;22;20061;-75
2022/09/05 00:29:24;;;;;;;0.85;0.70;;;18.40;64.80;;;;;;6237257;22;20034;-75
2022/09/05 00:32:05;;;;;;;0.60;0.55;;;18.30;64.80;;;;;;6278735;22;20019;-74
2022/09/05 00:35:00;;;;;;;0.70;0.65;;;18.30;65.00;;;;;;6277173;22;20035;-74
2022/09/05 00:37:31;;;;;;;0.70;0.70;;;18.30;65.10;;;;;;6277425;22;20084;-74
2022/09/05 00:40:16;;;;;;;0.95;0.77;;;18.20;65.00;;;;;;6278411;22;20003;-74
2022/09/05 00:42:43;;;;;;;1.00;0.90;;;18.20;65.20;;;;;;6252737;22;19995;-74
2022/09/05 00:45:16;;;;;;;2.17;1.10;;;18.20;65.20;;;;;;6252067;22;20075;-74
2022/09/05 00:47:52;;;;;;;0.98;0.88;;;18.20;65.30;;;;;;6251166;22;20032;-75
2022/09/05 00:50:25;;;;;;;1.48;0.85;;;18.20;65.50;;;;;;6278188;22;20000;-74
2022/09/05 00:52:59;;;;;;;0.77;0.77;;;18.10;65.50;;;;;;6256459;22;19996;-74
2022/09/05 00:55:51;;;;;;;1.40;0.73;;;18.10;65.60;;;;;;6259253;22;20061;-75
2022/09/05 00:58:49;;;;;;;1.15;0.70;;;18.00;65.70;;;;;;6286008;22;20340;-75
2022/09/05 01:01:36;;;;;;;0.65;0.65;;;18.10;65.80;;;;;;6274890;22;20034;-74
2022/09/05 01:04:22;;;;;;;1.50;0.80;;;18.10;65.80;;;;;;6277735;22;20094;-74
2022/09/05 01:07:11;;;;;;;0.60;0.60;;;18.00;65.70;;;;;;6278146;22;20011;-74
2022/09/05 01:09:52;;;;;;;0.57;0.57;;;18.10;65.80;;;;;;6251398;22;20003;-74
2022/09/05 01:12:54;;;;;;;0.70;0.70;;;18.10;65.80;;;;;;6278207;22;20014;-73
2022/09/05 01:15:29;;;;;;;0.65;0.60;;;18.00;65.80;;;;;;6255130;22;20394;-74
2022/09/05 01:18:20;;;;;;;0.70;0.70;;;18.10;65.80;;;;;;6278061;22;20378;-74
2022/09/05 01:21:13;;;;;;;0.55;0.55;;;18.00;65.90;;;;;;6277702;22;20015;-75
2022/09/05 01:24:01;;;;;;;0.70;0.70;;;18.00;66.00;;;;;;6250770;22;20029;-74
2022/09/05 01:26:55;;;;;;;0.70;0.70;;;17.90;66.60;;;;;;6277268;22;20558;-74
2022/09/05 01:29:41;;;;;;;0.60;0.60;;;17.90;66.10;;;;;;6279594;22;20440;-74
2022/09/05 01:32:26;;;;;;;0.68;0.68;;;17.90;66.20;;;;;;6279645;22;20054;-74
2022/09/05 01:35:21;;;;;;;0.70;0.70;;;17.80;66.20;;;;;;6279957;22;20416;-74
2022/09/05 01:37:52;;;;;;;1.05;0.60;;;17.80;66.30;;;;;;6280284;22;20054;-74
2022/09/05 01:40:28;;;;;;;0.90;0.70;;;17.80;66.30;;;;;;6279968;22;20006;-74
2022/09/05 01:43:22;;;;;;;0.82;0.70;;;17.90;66.40;;;;;;6280584;22;20023;-75
2022/09/05 01:45:58;;;;;;;0.75;0.70;;;17.80;66.40;;;;;;6253584;22;20008;-75
2022/09/05 01:48:36;;;;;;;0.68;0.68;;;17.80;66.40;;;;;;6280603;22;20016;-74
2022/09/05 01:51:24;;;;;;;0.50;0.50;;;17.80;66.50;;;;;;6279616;22;20004;-74
2022/09/05 01:54:06;;;;;;;0.60;0.60;;;17.70;66.60;;;;;;6280570;22;20007;-74
2022/09/05 01:56:53;;;;;;;0.88;0.73;;;17.80;66.70;;;;;;6253815;22;20335;-74
2022/09/05 01:59:32;;;;;;;0.63;0.63;;;17.70;66.70;;;;;;6256327;22;20008;-74
2022/09/05 02:02:14;;;;;;;0.65;0.65;;;17.70;66.80;;;;;;6253542;22;20391;-73
2022/09/05 02:04:59;;;;;;;1.05;0.75;;;17.80;66.80;;;;;;6280577;22;20014;-74
2022/09/05 02:07:36;;;;;;;0.68;0.68;;;17.80;66.80;;;;;;6279837;22;20015;-74
2022/09/05 02:10:34;;;;;;;0.55;0.55;;;17.80;66.90;;;;;;6276792;22;20028;-74
2022/09/05 02:13:24;;;;;;;0.88;0.80;;;17.70;67.00;;;;;;6279467;22;20536;-74
2022/09/05 02:16:11;;;;;;;0.63;0.60;;;17.70;67.10;;;;;;6253910;22;20090;-74
2022/09/05 02:18:51;;;;;;;1.02;0.85;;;17.70;67.10;;;;;;6227947;22;20371;-74
2022/09/05 02:21:37;;;;;;;0.60;0.60;;;17.70;67.20;;;;;;6278899;22;20008;-74
2022/09/05 02:24:14;;;;;;;0.80;0.80;;;17.70;67.30;;;;;;6278436;22;20007;-74
2022/09/05 02:26:57;;;;;;;0.95;0.52;;;17.70;67.30;;;;;;6248847;22;20007;-74
2022/09/05 02:29:55;;;;;;;0.63;0.63;;;17.60;67.30;;;;;;6276382;22;20060;-74
2022/09/05 02:32:42;;;;;;;0.70;0.70;;;17.70;67.40;;;;;;6253863;22;20003;-74
2022/09/05 02:35:24;;;;;;;0.70;0.70;;;17.60;67.30;;;;;;6276819;22;20053;-74
2022/09/05 02:38:05;;;;;;;0.55;0.55;;;17.70;67.40;;;;;;6277495;22;20022;-74
2022/09/05 02:40:41;;;;;;;0.70;0.65;;;17.70;67.50;;;;;;6277241;22;20011;-74
2022/09/05 02:43:34;;;;;;;1.38;0.90;;;17.70;67.50;;;;;;6277600;22;20091;-74
2022/09/05 02:46:18;;;;;;;0.75;0.60;;;17.70;67.70;;;;;;6250299;22;20082;-74
2022/09/05 02:48:53;;;;;;;0.70;0.70;;;17.70;67.70;;;;;;6276713;22;20154;-74
2022/09/05 02:51:28;;;;;;;1.20;0.75;;;17.70;67.70;;;;;;6250780;22;20064;-74
2022/09/05 02:53:59;;;;;;;0.90;0.70;;;17.70;67.80;;;;;;6277582;22;20082;-74
2022/09/05 02:56:51;;;;;;;1.27;0.70;;;17.70;67.90;;;;;;6277701;22;20035;-74
2022/09/05 02:59:53;;;;;;;1.23;0.90;;;17.60;67.90;;;;;;6275843;22;20003;-74
2022/09/05 03:02:30;;;;;;;0.70;0.70;;;17.60;68.00;;;;;;6228518;22;20018;-74
2022/09/05 03:05:19;;;;;;;0.73;0.73;;;17.60;68.10;;;;;;6277006;22;20336;-74
2022/09/05 03:08:05;;;;;;;0.50;0.50;;;17.60;68.10;;;;;;6277666;22;20010;-74
2022/09/05 03:10:55;;;;;;;0.57;0.57;;;17.60;68.10;;;;;;6278990;22;20282;-75
2022/09/05 03:13:56;;;;;;;0.83;0.80;;;17.60;68.10;;;;;;6256954;22;20118;-75
2022/09/05 03:16:56;;;;;;;0.55;0.55;;;17.50;68.20;;;;;;6262133;22;20717;-75
2022/09/05 03:19:56;;;;;;;1.00;0.90;;;17.60;68.20;;;;;;6261807;22;20031;-75
2022/09/05 03:22:57;;;;;;;0.80;0.80;;;17.50;68.30;;;;;;6257047;22;20440;-75
2022/09/05 03:25:58;;;;;;;1.33;0.73;;;17.60;68.30;;;;;;6283698;22;20004;-75
2022/09/05 03:28:58;;;;;;;1.13;0.80;;;17.60;68.30;;;;;;6284281;22;20034;-75
2022/09/05 03:31:51;;;;;;;0.70;0.70;;;17.50;68.40;;;;;;6275563;22;20054;-74
2022/09/05 03:34:37;;;;;;;0.90;0.77;;;17.50;68.50;;;;;;6229396;22;20332;-75
2022/09/05 03:37:27;;;;;;;0.85;0.70;;;17.40;68.60;;;;;;6276472;22;20011;-74
2022/09/05 03:40:19;;;;;;;1.20;0.80;;;17.60;68.80;;;;;;6248553;22;20008;-74
2022/09/05 03:43:12;;;;;;;1.20;1.00;;;17.50;68.80;;;;;;6276706;22;20007;-74
2022/09/05 03:46:00;;;;;;;0.90;0.90;;;17.40;68.90;;;;;;6277300;22;20090;-75
2022/09/05 03:48:57;;;;;;;1.20;0.82;;;17.30;69.00;;;;;;6249913;22;20018;-74
2022/09/05 03:51:49;;;;;;;0.80;0.80;;;17.40;69.10;;;;;;6250355;22;20011;-74
2022/09/05 03:54:39;;;;;;;1.20;0.98;;;17.40;69.10;;;;;;6250427;22;20054;-74
2022/09/05 03:57:30;;;;;;;0.85;0.75;;;17.50;69.10;;;;;;6256002;22;20008;-74
2022/09/05 04:00:07;;;;;;;1.05;0.90;;;17.40;69.10;;;;;;6279442;22;20065;-75
2022/09/05 04:02:43;;;;;;;1.10;1.00;;;17.40;69.10;;;;;;6280254;22;20010;-74
2022/09/05 04:05:18;;;;;;;1.05;0.90;;;17.40;69.10;;;;;;6254981;22;20010;-74
2022/09/05 04:07:59;;;;;;;0.90;0.82;;;17.50;69.20;;;;;;6277710;22;20352;-74
2022/09/05 04:10:54;;;;;;;1.25;0.80;;;17.30;69.10;;;;;;6256276;22;20000;-74
2022/09/05 04:13:41;;;;;;;0.80;0.80;;;17.40;69.30;;;;;;6234961;22;20086;-74
2022/09/05 04:16:14;;;;;;;1.17;1.00;;;17.30;69.30;;;;;;6281935;22;20277;-74
2022/09/05 04:18:50;;;;;;;1.10;1.00;;;17.30;69.60;;;;;;6255119;22;20070;-75
2022/09/05 04:21:30;;;;;;;0.80;0.80;;;17.30;69.70;;;;;;6281116;22;20011;-74
2022/09/05 04:24:27;;;;;;;1.00;0.90;;;17.20;69.80;;;;;;6281705;22;20008;-74
2022/09/05 04:27:18;;;;;;;0.90;0.80;;;17.10;69.90;;;;;;6282195;22;20007;-74
2022/09/05 04:30:00;;;;;;;0.80;0.80;;;17.20;70.20;;;;;;6252609;22;20327;-74
2022/09/05 04:32:42;;;;;;;;;;;17.20;70.10;;;;;;6282041;22;20444;-74
2022/09/05 04:35:42;;;;;;;0.98;0.80;;;17.20;69.90;;;;;;6275561;22;20227;-74
2022/09/05 04:38:13;;;;;;;0.70;0.70;;;17.10;69.90;;;;;;6279046;22;20011;-74
2022/09/05 04:40:53;;;;;;;1.23;1.10;;;17.10;69.90;;;;;;6278877;22;20086;-75
2022/09/05 04:43:27;;;;;;;0.90;0.90;;;17.10;70.00;;;;;;6251832;22;20015;-74
2022/09/05 04:46:10;;;;;;;0.77;0.70;;;17.10;70.20;;;;;;6278429;22;20007;-74
2022/09/05 04:48:48;;;;;;;1.58;1.27;;;17.00;70.30;;;;;;6248132;22;20014;-75
2022/09/05 04:51:44;;;;;;;0.95;0.90;;;17.00;70.40;;;;;;6275983;22;20370;-75
2022/09/05 04:54:37;;;;;;;2.47;1.00;;;17.00;70.60;;;;;;6279755;22;20000;-74
2022/09/05 04:57:19;;;;;;;0.98;0.90;;;17.00;70.70;;;;;;6257759;22;20012;-74
2022/09/05 05:00:02;;;;;;;1.10;1.00;;;16.90;70.70;;;;;;6229253;22;20007;-74
2022/09/05 05:02:37;;;;;;;1.13;1.00;;;16.90;70.70;;;;;;6280423;22;20006;-74
2022/09/05 05:05:09;;;;;;;1.20;1.00;;;16.90;70.80;;;;;;6253631;22;19999;-75
2022/09/05 05:07:59;;;;;;;1.23;1.13;;;17.00;71.00;;;;;;6279359;22;20022;-74
2022/09/05 05:10:41;;;;;;;1.73;1.30;;;16.90;70.90;;;;;;6278982;22;20023;-74
2022/09/05 05:13:24;;;;;;;1.20;1.00;;;16.90;70.90;;;;;;6279545;22;20102;-74
2022/09/05 05:15:55;;;;;;;1.10;1.00;;;17.00;70.90;;;;;;6251305;22;20031;-75
2022/09/05 05:18:40;;;;;;;1.65;1.30;;;17.00;70.80;;;;;;6277187;22;20069;-74
2022/09/05 05:21:21;;;;;;;1.30;1.17;;;17.00;71.60;;;;;;6278385;22;20016;-74
2022/09/05 05:23:54;;;;;;;1.75;1.10;;;17.10;71.00;;;;;;6254152;22;20008;-75
2022/09/05 05:26:29;;;;;;;1.20;1.08;;;17.10;70.90;;;;;;6277718;22;20035;-75
2022/09/05 05:29:18;;;;;;;1.50;1.08;;;17.10;70.90;;;;;;6251062;22;20034;-74
2022/09/05 05:31:52;;;;;;;1.42;1.10;;;17.00;70.90;;;;;;6275638;22;20010;-74
2022/09/05 05:34:23;;;;;;;1.10;0.90;;;17.10;71.00;;;;;;6251117;22;20007;-74
2022/09/05 05:36:59;;;;;;;1.63;1.20;;;17.10;71.00;;;;;;6252437;22;20012;-74
2022/09/05 05:39:28;;;;;;;1.35;1.20;;;17.10;71.00;;;;;;6278314;22;20035;-74
2022/09/05 05:41:56;;;;;;;1.38;1.13;;;17.10;71.00;;;;;;6252025;22;20453;-74
2022/09/05 05:44:31;;;;;;;1.45;1.20;;;17.20;71.00;;;;;;6252263;22;20035;-74
2022/09/05 05:47:04;;;;;;;2.20;1.40;;;17.20;71.00;;;;;;6253162;22;20019;-74
2022/09/05 05:49:58;;;;;;;1.10;1.00;;;17.30;71.00;;;;;;6280038;22;20074;-74
2022/09/05 05:52:59;;;;;;;2.10;1.17;;;17.30;71.00;;;;;;6261659;22;20004;-75
2022/09/05 05:55:47;;;;;;;1.02;0.90;;;17.40;70.90;;;;;;6288150;22;20053;-75
2022/09/05 05:58:41;;;;;;;1.10;1.00;;;17.40;70.90;;;;;;6260481;22;20004;-75
2022/09/05 06:01:39;;;;;;;1.52;1.10;;;17.40;70.80;;;;;;6283057;22;20050;-74
2022/09/05 06:04:36;;;;;;;1.10;1.00;;;17.50;70.80;;;;;;6280131;22;20016;-73
2022/09/05 06:07:37;;;;;;;1.20;1.10;;;17.60;70.80;;;;;;6281972;22;20019;-73
2022/09/05 06:10:39;;;;;;;1.08;0.88;;;17.70;70.70;;;;;;6280118;22;20011;-74
2022/09/05 06:13:40;;;;;;;0.90;0.88;;;17.70;70.50;;;;;;6276990;22;20033;-74
2022/09/05 06:20:20;;;;;;;1.10;0.80;;;17.80;70.30;;;;;;6161285;23;20024;-73
2022/09/05 06:23:17;;;;;;;1.30;0.90;;;18.00;70.20;;;;;;6181197;23;20088;-73
2022/09/05 06:26:20;;;;;;;1.02;0.95;;;18.00;70.10;;;;;;6163425;23;20040;-73
2022/09/05 06:29:07;;;;;;;1.40;1.25;;;18.10;70.10;;;;;;6181237;23;20028;-73
2022/09/05 06:31:58;;;;;;;2.20;1.38;;;18.10;70.10;;;;;;6153962;23;20096;-73
2022/09/05 06:34:46;;;;;;;1.50;1.08;;;18.20;70.10;;;;;;6159099;23;20084;-74
2022/09/05 06:37:41;;;;;;;1.20;1.10;;;18.30;70.00;;;;;;6181671;23;20059;-73
2022/09/05 06:40:18;;;;;;;1.90;1.20;;;18.40;70.00;;;;;;6179522;23;20012;-74
2022/09/05 06:43:08;;;;;;;2.15;1.20;;;18.40;69.90;;;;;;6181841;23;20031;-73
2022/09/05 06:46:02;;;;;;;1.57;1.00;;;18.60;69.90;;;;;;6130586;23;20009;-74
2022/09/05 06:48:42;;;;;;;0.88;0.88;;;18.60;69.80;;;;;;6180559;23;20071;-75
2022/09/05 06:51:40;;;;;;;2.38;1.23;;;18.60;69.60;;;;;;6272934;22;19999;-73
2022/09/05 06:54:42;;;;;;;0.88;0.82;;;18.70;69.70;;;;;;6277779;22;20069;-73
2022/09/05 06:57:52;;;;;;;2.17;1.42;;;18.80;69.70;;;;;;6277282;22;20011;-74
2022/09/05 07:00:23;;;;;;;1.05;0.98;;;18.80;69.60;;;;;;6127969;23;20096;-73
2022/09/05 07:03:23;;;;;;;0.88;0.88;;;18.90;69.60;;;;;;6186636;23;20116;-73
2022/09/05 07:06:03;;;;;;;2.33;1.55;;;19.00;69.60;;;;;;6189570;23;20437;-76
2022/09/05 07:08:54;;;;;;;2.10;1.00;;;19.00;69.50;;;;;;6171846;23;20098;-75
2022/09/05 07:11:24;;;;;;;1.10;1.00;;;19.20;69.40;;;;;;6142863;23;20016;-76
2022/09/05 07:13:57;;;;;;;2.67;1.15;;;19.30;69.30;;;;;;6172060;23;20009;-74
2022/09/05 07:16:42;;;;;;;1.85;1.20;;;19.40;69.30;;;;;;6189506;23;20017;-73
2022/09/05 07:19:28;;;;;;;1.23;0.98;;;19.50;69.20;;;;;;6181782;23;20064;-74
2022/09/05 07:22:20;;;;;;;1.70;1.10;;;19.60;69.00;;;;;;6157528;23;20366;-72
2022/09/05 07:24:49;;;;;;;1.60;1.17;;;19.60;68.90;;;;;;6182749;23;20077;-74
2022/09/05 07:27:30;;;;;;;0.93;0.88;;;19.70;68.70;;;;;;6184745;23;20017;-73
2022/09/05 07:29:58;;;;;;;1.40;1.15;;;19.80;68.70;;;;;;6198626;22;20012;-74
2022/09/05 07:32:26;;;;;;;2.15;1.20;;;19.90;68.70;;;;;;6259664;22;20012;-74
2022/09/05 07:34:53;;;;;;;1.20;1.10;;;20.00;68.60;;;;;;6225538;22;19996;-73
2022/09/05 07:37:23;;;;;;;0.98;0.93;;;20.00;68.50;;;;;;6275919;22;20000;-73
2022/09/05 07:39:59;;;;;;;1.77;1.00;;;20.10;68.50;;;;;;6251318;22;20015;-72
2022/09/05 07:42:31;;;;;;;2.90;1.58;;;20.20;68.40;;;;;;6276041;22;20004;-75
2022/09/05 07:45:05;;;;;;;1.30;1.10;;;20.20;68.30;;;;;;6247223;22;20008;-72
2022/09/05 07:47:35;;;;;;;1.15;1.00;;;20.40;68.30;;;;;;6275956;22;20007;-73
2022/09/05 07:50:07;;;;;;;1.38;1.10;;;20.40;68.20;;;;;;6278829;22;20038;-73
2022/09/05 07:52:39;;;;;;;0.95;0.90;;;20.40;68.10;;;;;;6276207;22;20007;-73
2022/09/05 07:55:29;;;;;;;0.70;0.70;;;20.50;68.10;;;;;;6231425;22;20000;-74
2022/09/05 07:57:58;;;;;;;1.20;1.10;;;20.50;68.00;;;;;;6248067;22;20332;-73
2022/09/05 08:00:27;;;;;;;2.15;1.20;;;20.70;68.00;;;;;;6274463;22;20019;-72
2022/09/05 08:02:53;;;;;;;1.20;1.10;;;20.80;68.00;;;;;;6278797;22;20011;-73
2022/09/05 08:05:21;;;;;;;1.60;0.95;;;20.90;67.90;;;;;;6246271;22;20015;-73
2022/09/05 08:07:56;;;;;;;0.85;0.77;;;21.10;67.70;;;;;;6224709;22;20301;-72
2022/09/05 08:10:28;;;;;;;1.33;1.13;;;21.20;67.60;;;;;;6225382;22;20432;-73
2022/09/05 08:13:01;;;;;;;1.08;0.98;;;21.40;67.50;;;;;;6281604;22;20381;-74
2022/09/05 08:15:30;;;;;;;0.90;0.90;;;21.40;67.20;;;;;;6258634;22;20109;-74
2022/09/05 08:18:30;;;;;;;0.70;0.70;;;21.70;67.00;;;;;;6275020;22;20018;-73
2022/09/05 08:21:06;;;;;;;0.80;0.80;;;21.80;66.70;;;;;;6249608;22;20004;-73
2022/09/05 08:24:00;;;;;;;0.77;0.77;;;22.00;66.50;;;;;;6248127;22;20012;-72
2022/09/05 08:26:42;;;;;;;1.17;0.95;;;22.20;66.20;;;;;;6251036;22;20008;-72
2022/09/05 08:29:33;;;;;;;1.27;0.80;;;22.40;65.90;;;;;;6275889;22;20008;-73
2022/09/05 08:32:14;;;;;;;1.55;0.90;;;22.60;65.70;;;;;;6255567;22;20478;-73
2022/09/05 08:34:43;;;;;;;;;;;22.80;65.50;;;;;;6278712;22;19996;-73
2022/09/05 08:37:12;;;;;;;0.73;0.65;;;22.90;65.20;;;;;;6277424;22;19978;-73
2022/09/05 08:39:42;;;;;;;0.70;0.70;;;22.90;65.10;;;;;;6251675;22;20008;-74
2022/09/05 08:42:25;;;;;;;0.70;0.70;;;23.20;65.00;;;;;;6276840;22;20003;-73
2022/09/05 08:45:13;;;;;;;0.60;0.60;;;23.40;64.80;;;;;;6246628;22;20057;-73
2022/09/05 08:48:03;;;;;;;0.60;0.60;;;23.50;64.60;;;;;;6275703;22;20004;-73
2022/09/05 08:50:57;;;;;;;0.68;0.68;;;23.70;64.40;;;;;;6253540;22;20004;-74
2022/09/05 08:53:53;;;;;;;0.50;0.50;;;23.90;64.20;;;;;;6249132;22;20015;-73
2022/09/05 08:56:26;;;;;;;0.60;0.60;;;24.00;64.10;;;;;;6275489;22;20082;-73
2022/09/05 08:58:58;;;;;;;0.50;0.50;;;24.10;63.90;;;;;;6276417;22;20011;-74
2022/09/05 09:01:34;;;;;;;0.80;0.60;;;24.20;63.90;;;;;;6248611;22;20118;-74
2022/09/05 09:04:27;;;;;;;0.60;0.60;;;24.40;63.80;;;;;;6248716;22;20040;-72
2022/09/05 09:07:24;;;;;;;0.50;0.50;;;24.50;63.50;;;;;;6279211;22;20008;-73
2022/09/05 09:10:21;;;;;;;0.50;0.50;;;24.70;63.20;;;;;;6275565;22;20392;-73
2022/09/05 09:13:11;;;;;;;0.60;0.60;;;24.90;63.00;;;;;;6277979;22;20012;-74
2022/09/05 09:15:48;;;;;;;;;;;25.00;62.80;;;;;;6276319;22;19996;-73
2022/09/05 09:18:18;;;;;;;0.55;0.50;;;25.20;62.70;;;;;;6248404;22;19976;-74
2022/09/05 09:20:51;;;;;;;0.50;0.50;;;25.30;62.40;;;;;;6248155;22;20122;-74
2022/09/05 09:23:43;;;;;;;1.08;0.93;;;25.50;62.00;;;;;;6222648;22;20000;-73
2022/09/05 09:26:14;;;;;;;0.50;0.50;;;25.60;61.60;;;;;;6248481;22;20086;-72
2022/09/05 09:29:02;;;;;;;0.82;0.40;;;25.80;61.50;;;;;;6248860;22;20455;-72
2022/09/05 09:31:59;;;;;;;0.73;0.73;;;25.90;61.20;;;;;;6249090;22;20003;-73
2022/09/05 09:34:41;;;;;;;0.77;0.70;;;26.00;60.90;;;;;;6222890;22;20340;-73
2022/09/05 09:37:40;;;;;;;0.80;0.80;;;26.00;60.60;;;;;;6248449;22;20090;-73
2022/09/05 09:40:39;;;;;;;0.50;0.50;;;26.10;60.40;;;;;;6255221;22;20408;-71
2022/09/05 09:43:26;;;;;;;0.47;0.47;;;26.30;60.40;;;;;;6274628;22;20109;-72
2022/09/05 09:46:16;;;;;;;0.50;0.50;;;26.40;60.30;;;;;;6249007;22;20004;-72
2022/09/05 09:49:06;;;;;;;0.50;0.50;;;26.40;60.00;;;;;;6253626;22;20039;-73
2022/09/05 09:52:09;;;;;;;0.60;0.60;;;26.60;59.90;;;;;;6240976;23;20038;-72
2022/09/05 09:55:10;;;;;;;0.50;0.50;;;26.60;59.60;;;;;;6250072;22;20007;-71
2022/09/05 09:57:59;;;;;;;0.55;0.50;;;26.60;59.60;;;;;;6274735;22;20057;-72
2022/09/05 10:00:36;;;;;;;0.50;0.50;;;26.60;59.50;;;;;;6275245;22;20057;-71
2022/09/05 10:03:36;;;;;;;0.68;0.60;;;26.60;59.30;;;;;;6247859;22;20012;-72
2022/09/05 10:06:24;;;;;;;;;;;26.70;59.10;;;;;;6256493;22;20007;-73
2022/09/05 10:09:20;;;;;;;0.50;0.50;;;26.70;59.10;;;;;;6247557;22;19926;-73
2022/09/05 10:12:20;;;;;;;0.40;0.40;;;26.70;58.90;;;;;;6228650;22;20095;-73
2022/09/05 10:15:00;;;;;;;;;;;26.70;58.90;;;;;;6274944;22;20033;-73
2022/09/05 10:17:47;;;;;;;0.38;0.30;;;26.60;58.90;;;;;;6247729;22;19903;-74
2022/09/05 10:20:41;;;;;;;0.40;0.40;;;26.60;58.80;;;;;;6246806;22;20020;-73
2022/09/05 10:23:37;;;;;;;0.38;0.38;;;26.60;58.70;;;;;;6274758;22;20093;-73
2022/09/05 10:26:38;;;;;;;0.57;0.50;;;26.60;58.50;;;;;;6252029;22;20014;-73
2022/09/05 10:29:10;;;;;;;;;;;26.60;58.20;;;;;;6252758;22;20020;-73
2022/09/05 10:31:55;;;;;;;0.40;0.40;;;26.70;58.20;;;;;;6274713;22;19899;-73
2022/09/05 10:34:24;;;;;;;0.50;0.50;;;26.70;57.80;;;;;;6274842;22;20075;-73
2022/09/05 10:36:53;;;;;;;1.77;0.45;;;26.70;57.40;;;;;;6274886;22;20380;-72
2022/09/05 10:39:29;;;;;;;0.50;0.50;;;26.80;57.10;;;;;;6274595;22;20010;-74
2022/09/05 10:42:00;;;;;;;0.82;0.50;;;27.00;56.60;;;;;;6220538;22;20016;-72
2022/09/05 10:44:41;;;;;;;0.70;0.60;;;27.00;56.20;;;;;;6247608;22;20015;-72
2022/09/05 10:47:33;;;;;;;0.50;0.50;;;27.10;55.90;;;;;;6247475;22;20336;-73
2022/09/05 10:50:26;;;;;;;0.50;0.50;;;27.10;55.60;;;;;;6252016;22;20015;-72
2022/09/05 10:53:15;;;;;;;0.50;0.50;;;27.10;55.40;;;;;;6274894;22;20036;-72
2022/09/05 10:55:55;;;;;;;0.50;0.50;;;27.10;55.30;;;;;;6274851;22;20053;-72
2022/09/05 10:58:58;;;;;;;0.50;0.50;;;27.10;55.20;;;;;;6274603;22;20376;-72
2022/09/05 11:01:40;;;;;;;1.08;0.50;;;27.20;55.00;;;;;;6275201;22;20033;-73
2022/09/05 11:04:36;;;;;;;0.43;0.43;;;27.30;54.80;;;;;;6274685;22;20043;-72
2022/09/05 11:07:14;;;;;;;0.82;0.50;;;27.40;54.40;;;;;;6275055;22;20049;-72
2022/09/05 11:10:01;;;;;;;0.50;0.50;;;27.50;54.10;;;;;;6247760;22;20065;-72
2022/09/05 11:12:57;;;;;;;0.50;0.50;;;27.60;53.90;;;;;;6276436;22;20003;-72
2022/09/05 11:15:48;;;;;;;0.52;0.52;;;27.70;53.50;;;;;;6248283;22;20011;-72
2022/09/05 11:18:40;;;;;;;0.47;0.47;;;27.80;53.20;;;;;;6255094;22;20007;-74
2022/09/05 11:21:18;;;;;;;0.40;0.40;;;27.80;53.00;;;;;;6249868;22;20006;-73
2022/09/05 11:23:53;;;;;;;0.30;0.30;;;27.80;52.80;;;;;;6275598;22;20000;-72
2022/09/05 11:26:29;;;;;;;0.32;0.32;;;27.90;52.80;;;;;;6250677;22;20011;-72
2022/09/05 11:29:06;;;;;;;0.40;0.40;;;27.90;52.60;;;;;;6275342;22;20008;-73
2022/09/05 11:31:49;;;;;;;0.40;0.40;;;28.00;52.40;;;;;;6275790;22;20012;-72
2022/09/05 11:34:48;;;;;;;0.60;0.50;;;28.10;52.10;;;;;;6277345;22;20004;-72
2022/09/05 11:37:41;;;;;;;0.63;0.60;;;28.20;51.90;;;;;;6275541;22;20073;-72
2022/09/05 11:40:38;;;;;;;0.40;0.40;;;28.30;51.80;;;;;;6252203;22;20012;-73
2022/09/05 11:43:38;;;;;;;0.47;0.40;;;28.40;51.80;;;;;;6246133;22;20023;-73
2022/09/05 11:46:35;;;;;;;0.32;0.32;;;28.30;51.50;;;;;;6247233;22;20027;-74
2022/09/05 11:49:39;;;;;;;0.45;0.45;;;28.30;51.30;;;;;;6251170;22;20017;-74
2022/09/05 11:52:45;;;;;;;0.40;0.40;;;28.60;51.20;;;;;;6228485;22;20018;-73
2022/09/05 11:55:26;;;;;;;0.32;0.32;;;28.60;51.00;;;;;;6254803;22;20046;-73
2022/09/05 11:58:16;;;;;;;0.30;0.30;;;28.70;50.70;;;;;;6250806;22;20027;-73
2022/09/05 12:00:55;;;;;;;;;;;28.70;51.20;;;;;;6276618;22;20033;-74
2022/09/05 12:03:40;;;;;;;0.50;0.50;;;28.90;50.60;;;;;;6249040;22;19922;-72
2022/09/05 12:06:46;;;;;;;0.30;0.30;;;28.90;50.30;;;;;;6254233;22;20023;-74
2022/09/05 12:09:40;;;;;;;0.38;0.38;;;29.00;50.10;;;;;;6261814;22;20007;-74
2022/09/05 12:12:25;;;;;;;0.40;0.40;;;29.10;49.90;;;;;;6234080;22;20007;-73
2022/09/05 12:15:10;;;;;;;1.40;0.40;;;29.20;49.70;;;;;;6274993;22;20133;-74
2022/09/05 12:17:51;;;;;;;0.35;0.35;;;29.20;49.60;;;;;;6276860;22;20011;-72
2022/09/05 12:20:33;;;;;;;0.50;0.50;;;29.20;49.50;;;;;;6250920;22;20003;-74
2022/09/05 12:23:16;;;;;;;0.40;0.40;;;29.30;49.30;;;;;;6230278;22;20061;-76
2022/09/05 12:25:56;;;;;;;0.32;0.32;;;29.40;49.20;;;;;;6250733;22;20018;-72
2022/09/05 12:28:31;;;;;;;0.30;0.30;;;29.40;49.10;;;;;;6250613;22;20035;-73
2022/09/05 12:31:10;;;;;;;0.40;0.40;;;29.40;49.10;;;;;;6275765;22;20028;-74
2022/09/05 12:33:37;;;;;;;0.33;0.33;;;29.40;49.00;;;;;;6275454;22;20003;-72
2022/09/05 12:36:15;;;;;;;0.30;0.30;;;29.40;49.00;;;;;;6220653;22;20250;-72
2022/09/05 12:39:01;;;;;;;0.30;0.30;;;29.30;48.80;;;;;;6247443;22;20007;-73
2022/09/05 12:41:40;;;;;;;0.30;0.30;;;29.30;48.80;;;;;;6274654;22;20019;-75
2022/09/05 12:44:24;;;;;;;0.38;0.38;;;29.40;48.70;;;;;;6274736;22;20094;-73
2022/09/05 12:47:02;;;;;;;0.40;0.40;;;29.60;48.40;;;;;;6247520;22;20004;-73
2022/09/05 12:49:35;;;;;;;1.05;0.40;;;29.60;48.10;;;;;;6222072;22;20020;-73
2022/09/05 12:52:08;;;;;;;0.32;0.32;;;29.70;47.90;;;;;;6274982;22;20003;-73
2022/09/05 12:55:00;;;;;;;0.43;0.43;;;29.80;47.70;;;;;;6247967;22;19996;-74
2022/09/05 12:57:32;;;;;;;0.50;0.50;;;29.80;47.70;;;;;;6248040;22;20015;-74
2022/09/05 13:00:20;;;;;;;0.38;0.38;;;29.70;47.60;;;;;;6275464;22;20085;-73
2022/09/05 13:02:53;;;;;;;0.47;0.40;;;29.70;47.70;;;;;;6271825;22;20027;-72
2022/09/05 13:05:25;;;;;;;0.30;0.30;;;29.60;47.70;;;;;;6275517;22;20027;-74
2022/09/05 13:07:57;;;;;;;0.40;0.40;;;29.60;47.70;;;;;;6249030;22;20008;-73
2022/09/05 13:10:32;;;;;;;0.50;0.50;;;29.60;47.80;;;;;;6275679;22;20408;-73
2022/09/05 13:13:06;;;;;;;0.50;0.50;;;29.50;47.70;;;;;;6275130;22;20018;-73
2022/09/05 13:15:38;;;;;;;0.35;0.35;;;29.50;47.70;;;;;;6248073;22;20420;-73
2022/09/05 13:18:27;;;;;;;0.40;0.40;;;29.40;47.70;;;;;;6275009;22;20027;-76
2022/09/05 13:21:10;;;;;;;0.45;0.45;;;29.40;47.60;;;;;;6250098;22;20024;-73
2022/09/05 13:23:57;;;;;;;0.60;0.50;;;29.50;47.50;;;;;;6223766;22;20031;-73
2022/09/05 13:26:50;;;;;;;0.40;0.40;;;29.60;47.40;;;;;;6248335;22;20019;-73
2022/09/05 13:29:27;;;;;;;0.32;0.32;;;29.60;47.30;;;;;;6275750;22;20023;-73
2022/09/05 13:32:08;;;;;;;0.50;0.45;;;29.50;47.10;;;;;;6222832;22;19995;-74
2022/09/05 13:34:42;;;;;;;0.30;0.30;;;29.60;47.20;;;;;;6248100;22;20004;-75
2022/09/05 13:37:26;;;;;;;0.30;0.30;;;29.50;47.10;;;;;;6224003;22;20424;-72
2022/09/05 13:40:09;;;;;;;0.40;0.40;;;29.50;47.20;;;;;;6222967;22;20006;-72
2022/09/05 13:42:44;;;;;;;0.40;0.40;;;29.60;47.30;;;;;;6275584;22;20017;-73
2022/09/05 13:45:17;;;;;;;0.30;0.30;;;29.50;47.20;;;;;;6275806;22;20004;-73
2022/09/05 13:47:57;;;;;;;0.40;0.40;;;29.40;47.30;;;;;;6274982;22;20003;-73
2022/09/05 13:50:28;;;;;;;0.40;0.40;;;29.40;47.20;;;;;;6275203;22;20079;-73
2022/09/05 13:53:01;;;;;;;0.52;0.40;;;29.50;47.20;;;;;;6275213;22;20027;-72
2022/09/05 13:55:38;;;;;;;0.40;0.40;;;29.50;47.10;;;;;;6275776;22;20071;-74
2022/09/05 13:58:14;;;;;;;0.40;0.40;;;29.50;47.00;;;;;;6249346;22;20022;-74
2022/09/05 14:01:05;;;;;;;0.50;0.40;;;29.40;46.70;;;;;;6222705;22;20031;-75
2022/09/05 14:04:06;;;;;;;0.47;0.40;;;29.40;46.70;;;;;;6248182;22;20004;-74
2022/09/05 14:06:55;;;;;;;0.50;0.50;;;29.50;46.70;;;;;;6252253;22;20004;-75
2022/09/05 14:09:46;;;;;;;0.50;0.50;;;29.50;46.50;;;;;;6274743;22;20074;-75
2022/09/05 14:12:33;;;;;;;0.52;0.52;;;29.60;46.40;;;;;;6275310;22;19999;-74
2022/09/05 14:15:14;;;;;;;0.68;0.60;;;29.60;46.20;;;;;;6275911;22;20076;-74
2022/09/05 14:18:02;;;;;;;0.52;0.52;;;29.70;46.00;;;;;;6273976;22;20093;-75
2022/09/05 14:23:13;;;;;;;0.50;0.50;;;29.60;45.80;;;;;;6275021;22;20008;-74